• Join FlightAware (Why Join?)
  • Login
  • US Flag 
08:29AM EDT


 

Airport Tracker/Info


-or-


 

Live Flight TrackerFlight Track Log ✈ VNR160 ✈ 22-Apr-2013 ✈ KHFJ - KDWH

Flight Track Log - Related Links

Times and Time Zones

All times are in EDT time to prevent confusion due to time zone crossing. See the VNR160 flight status page for this flight to view local times or setup timezone preferences in your user account.

Time Position Orientation Groundspeed Altitude Reporting Facility
EDT Latitude Longitude Course Direction KTS MPH feet Rate Location/Type
01:04PM 36.8356 -94.0508 191° South 179 206 4,400  Level Memphis Center
01:05PM 36.8289 -94.0525 191° South 174 200 4,700 1,740 Climbing Kansas City Center
01:06PM 36.7850 -94.0850 211° Southwest 177 204 6,700 2,160 Climbing Kansas City Center
01:07PM 36.7306 -94.1269 212° Southwest 185 213 9,100 1,980 Climbing Kansas City Center
01:08PM 36.6797 -94.1611 208° Southwest 196 226 10,800 1,740 Climbing Kansas City Center
01:09PM 36.6275 -94.2025 212° Southwest 214 246 12,800 1,920 Climbing Kansas City Center
01:10PM 36.5775 -94.2394 211° Southwest 213 245 14,800 1,680 Climbing Kansas City Center
01:11PM 36.5267 -94.2797 212° Southwest 213 245 16,400 1,680 Climbing Kansas City Center
01:12PM 36.4719 -94.3208 211° Southwest 219 252 18,300 1,620 Climbing Kansas City Center
01:13PM 36.4167 -94.3628 211° Southwest 225 259 19,800 1,620 Climbing Kansas City Center
01:14PM 36.3467 -94.4172 212° Southwest 234 269 21,700 1,740 Climbing Kansas City Center
01:14PM 36.3233 -94.4344 211° Southwest 244 281 22,400 1,620 Climbing Memphis Center
01:15PM 36.2636 -94.4806 212° Southwest 255 293 24,100 1,500 Climbing Memphis Center
01:16PM 36.1994 -94.5286 211° Southwest 255 293 25,400 1,380 Climbing Memphis Center
01:17PM 36.1350 -94.5794 213° Southwest 261 300 26,900 1,260 Climbing Memphis Center
01:18PM 36.0708 -94.6275 211° Southwest 266 306 28,000 1,140 Climbing Memphis Center
01:19PM 36.0025 -94.6753 209° Southwest 272 313 29,200 600 Climbing Memphis Center
01:22PM 35.8500 -94.7892 211° Southwest 301 346 30,000 240 Climbing Fort Worth Center
01:23PM 35.7719 -94.8478 211° Southwest 320 368 30,000  Level Fort Worth Center
01:24PM 35.7022 -94.9011 212° Southwest 331 381 30,000  Level Fort Worth Center
01:25PM 35.6178 -94.9597 209° Southwest 338 389 30,000  Level Fort Worth Center
01:26PM 35.5358 -95.0233 212° Southwest 344 396 30,000 420 Level Fort Worth Center
01:27PM 35.4556 -95.0819 211° Southwest 344 396 30,900 900 Climbing Fort Worth Center
01:28PM 35.3814 -95.1372 211° Southwest 339 390 31,900 540 Climbing Fort Worth Center
01:29PM 35.3053 -95.1928 211° Southwest 329 379 32,000  Climbing Fort Worth Center
01:30PM 35.2269 -95.2508 211° Southwest 329 379 32,000  Level Fort Worth Center
01:31PM 35.1467 -95.3111 212° Southwest 334 384 32,000  Level Fort Worth Center
01:32PM 35.0644 -95.3717 211° Southwest 339 390 32,000  Level Fort Worth Center
01:33PM 34.9817 -95.4294 210° Southwest 339 390 32,000  Level Fort Worth Center
01:34PM 34.8992 -95.4894 211° Southwest 345 397 32,000  Level Fort Worth Center
01:35PM 34.8147 -95.5497 210° Southwest 351 404 32,000  Level Fort Worth Center
01:36PM 34.7300 -95.6094 210° Southwest 359 413 32,000  Level Fort Worth Center
01:37PM 34.6453 -95.6694 210° Southwest 359 413 32,000  Level Fort Worth Center
01:38PM 34.5628 -95.7292 211° Southwest 353 406 32,000  Level Fort Worth Center
01:39PM 34.4781 -95.7886 210° Southwest 358 412 32,000  Level Fort Worth Center
01:40PM 34.3953 -95.8506 212° Southwest 353 406 32,000  Level Fort Worth Center
01:41PM 34.3125 -95.9100 211° Southwest 353 406 32,000  Level Fort Worth Center
01:42PM 34.2278 -95.9692 210° Southwest 353 406 32,000  Level Fort Worth Center
01:43PM 34.1450 -96.0283 211° Southwest 353 406 32,000  Level Fort Worth Center
01:44PM 34.0578 -96.0897 210° Southwest 347 399 32,000  Level Fort Worth Center
01:45PM 33.9750 -96.1536 213° Southwest 340 391 32,000  Level Fort Worth Center
01:46PM 33.8900 -96.2125 210° Southwest 345 397 32,000  Level Fort Worth Center
01:47PM 33.8072 -96.2711 210° Southwest 355 409 32,000  Level Fort Worth Center
01:48PM 33.7222 -96.3297 210° Southwest 355 409 32,000  Level Fort Worth Center
01:49PM 33.6350 -96.3881 209° Southwest 355 409 32,000  Level Fort Worth Center
01:50PM 33.5519 -96.4489 211° Southwest 355 409 32,000  Level Fort Worth Center
01:51PM 33.4772 -96.4994 209° Southwest 350 403 32,000  Level Fort Worth Center
01:52PM 33.3900 -96.5600 210° Southwest 355 409 32,000  Level Fort Worth Center
01:53PM 33.3025 -96.6181 209° Southwest 355 409 32,000  Level Fort Worth Center
01:54PM 33.2194 -96.6783 211° Southwest 355 409 32,000  Level Fort Worth Center
01:55PM 33.1342 -96.7361 210° Southwest 355 409 32,000  Level Fort Worth Center
01:56PM 33.0469 -96.7964 210° Southwest 355 409 32,000  Level Fort Worth Center
01:57PM 32.9511 -96.8589 209° Southwest 355 409 32,000  Level Fort Worth Center
01:58PM 32.8489 -96.8842 192° South 361 415 32,000  Level Fort Worth Center
01:59PM 32.7403 -96.8603 170° South 380 437 32,000  Level Fort Worth Center
02:00PM 32.6317 -96.8264 165° South 398 458 32,000  Level Fort Worth Center
02:01PM 32.5228 -96.7975 167° South 405 466 32,000  Level Fort Worth Center
02:02PM 32.4100 -96.7661 167° South 405 466 32,000  Level Fort Worth Center
02:03PM 32.3117 -96.7375 166° South 405 466 32,000  Level Fort Worth Center
02:04PM 32.2008 -96.7064 167° South 405 466 32,000 -480 Level Fort Worth Center
02:05PM 32.0900 -96.6753 167° South 415 478 31,100 -1,260 Descending Fort Worth Center
02:06PM 31.9750 -96.6444 167° South 415 478 29,500 -1,560 Descending Fort Worth Center
02:07PM 31.8622 -96.6136 167° South 415 478 28,000 -1,260 Descending Fort Worth Center
02:08PM 31.7386 -96.5781 166° South 415 478 27,000 -480 Descending Fort Worth Center
02:09PM 31.6100 -96.5406 166° South 411 473 27,000 -60 Level Houston Center
02:10PM 31.5014 -96.5103 167° South 403 464 26,900 -600 Descending Houston Center
02:11PM 31.3964 -96.4700 162° South 400 460 25,800 -1,020 Descending Houston Center
02:12PM 31.2914 -96.4306 162° South 397 457 24,800 -1,080 Descending Houston Center
02:13PM 31.1625 -96.4125 173° South 399 459 23,600 -1,080 Descending Houston Center
02:14PM 31.0581 -96.4261 186° South 382 440 22,600 -960 Descending Houston Center
02:15PM 30.9528 -96.4406 187° South 381 438 21,600 -960 Descending Houston Center
02:16PM 30.8550 -96.4564 188° South 375 432 20,600 -1,020 Descending Houston Center
02:17PM 30.7536 -96.4536 179° South 372 428 19,600 -1,080 Descending Houston Center
02:18PM 30.6342 -96.4253 168° South 369 425 18,400 -1,680 Descending Houston Center
02:19PM 30.5381 -96.4031 169° South 357 411 16,200 -2,280 Descending Houston Center
02:20PM 30.4458 -96.3786 167° South 347 399 13,700 -2,520 Descending Houston Center
02:21PM 30.4294 -96.2725 100° East 317 365 11,000 -2,520 Descending Houston Center
02:22PM 30.4375 -96.1675 85° East 302 348 8,300 -2,340 Descending Houston Center
02:23PM 30.4356 -96.0875 92° East 301 346 6,200 -1,740 Descending Houston Center
02:24PM 30.4206 -95.9950 101° East 266 306 5,000 -600 Descending Houston Center
02:25PM 30.4078 -95.9019 99° East 265 305 5,000 -300 Level Houston Center
02:26PM 30.3931 -95.8175 101° East 267 307 4,400 -840 Descending Houston Center
02:27PM 30.3833 -95.7425 99° East 252 290 3,300 -1,020 Descending Houston Center
02:28PM 30.3714 -95.6739 101° East 199 229 2,300 -660 Descending Houston Center
02:30PM 30.3422 -95.6372 133° Southeast 209 241 2,000 -120 Descending Houston Center
02:32PM 30.2481 -95.5844 154° Southeast 154 177 2,000 -120 Level Houston Center
02:33PM 30.2008 -95.5733 169° South 176 203 1,700 -180 Descending Houston Center
02:34PM 30.1586 -95.5686 174° South 121 139 1,700 -120 Level Houston Center
02:35PM 30.1222 -95.5633 173° South 134 154 1,500 -600 Descending Houston Center
02:36PM 30.0883 -95.5575 172° South 127 146 500 -1,020 Descending Houston Center